Time;durP1;ratioP1;P1;durP2;ratioP2;P2;SDS_P1;SDS_P2;PMS_P1;PMS_P2;Temp;Humidity;BMP_temperature;BMP_pressure;BME280_temperature;BME280_humidity;BME280_pressure;Samples;Min_cycle;Max_cycle;Signal;HPM_P1;HPM_P2
2021/11/28 00:01:11;;;;;;;13.13;7.43;;;;;;;3.02;93.02;98350.03;5025333;28;20084;-53
2021/11/28 00:03:38;;;;;;;16.17;7.88;;;;;;;2.99;93.60;98347.56;5031360;28;20085;-55
2021/11/28 00:06:09;;;;;;;12.15;6.68;;;;;;;3.01;93.35;98337.88;5025597;28;20045;-53
2021/11/28 00:08:44;;;;;;;10.10;6.90;;;;;;;3.01;92.78;98340.50;5025660;28;20037;-52
2021/11/28 00:11:45;;;;;;;10.20;7.10;;;;;;;3.01;93.08;98345.72;5014229;28;20359;-53
2021/11/28 00:14:12;;;;;;;13.27;7.32;;;;;;;3.03;93.45;98349.09;5018938;28;20042;-53
2021/11/28 00:16:40;;;;;;;11.40;7.30;;;;;;;2.99;92.60;98342.31;5024473;28;20053;-52
2021/11/28 00:19:07;;;;;;;13.63;7.25;;;;;;;2.95;93.01;98343.41;5024901;28;20092;-53
2021/11/28 00:21:35;;;;;;;9.77;6.93;;;;;;;2.98;92.38;98348.50;5019562;28;20046;-52
2021/11/28 00:24:02;;;;;;;12.80;7.25;;;;;;;2.99;93.39;98347.56;5025133;28;20396;-54
2021/11/28 00:26:29;;;;;;;14.07;7.50;;;;;;;3.01;93.66;98353.56;5020085;28;20510;-54
2021/11/28 00:28:56;;;;;;;9.98;6.85;;;;;;;3.02;92.52;98343.94;5026285;28;20049;-51
2021/11/28 00:31:22;;;;;;;13.15;7.40;;;;;;;3.00;93.00;98344.03;5016265;28;20053;-54
2021/11/28 00:33:49;;;;;;;11.45;6.53;;;;;;;3.02;92.51;98347.41;5024341;28;20127;-58
2021/11/28 00:36:16;;;;;;;9.55;7.43;;;;;;;3.04;92.03;98353.41;5023822;28;20045;-53
2021/11/28 00:38:42;;;;;;;10.77;6.47;;;;;;;3.02;91.61;98351.78;5027811;28;20049;-51
2021/11/28 00:41:09;;;;;;;11.80;6.95;;;;;;;3.02;92.42;98352.66;5014276;28;20049;-56
2021/11/28 00:43:35;;;;;;;12.18;7.10;;;;;;;3.01;92.18;98356.19;5023535;28;20046;-54
2021/11/28 00:46:02;;;;;;;15.73;8.02;;;;;;;2.95;93.06;98346.03;5022566;28;20045;-55
2021/11/28 00:48:30;;;;;;;10.27;7.35;;;;;;;2.99;93.30;98352.78;5021626;28;20038;-53
2021/11/28 00:53:49;;;;;;;11.77;6.97;;;;;;;3.03;92.39;98359.56;5018710;28;20052;-52
2021/11/28 00:56:17;;;;;;;10.40;7.40;;;;;;;3.06;92.39;98362.03;5022290;28;20494;-53
2021/11/28 00:58:45;;;;;;;10.23;6.65;;;;;;;3.08;92.17;98361.97;5023045;28;20045;-51
2021/11/28 01:01:13;;;;;;;15.00;6.60;;;;;;;3.04;91.48;98357.81;5011109;28;20510;-54
2021/11/28 01:03:39;;;;;;;8.43;6.15;;;;;;;3.01;91.50;98358.78;5017480;28;20163;-51
2021/11/28 01:06:06;;;;;;;12.43;7.57;;;;;;;3.02;92.00;98365.72;5011626;28;20053;-51
2021/11/28 01:08:33;;;;;;;9.40;6.80;;;;;;;2.99;91.59;98362.44;5021478;28;20104;-52
2021/11/28 01:11:00;;;;;;;11.52;7.20;;;;;;;2.99;91.66;98373.69;5012836;28;20136;-53
2021/11/28 01:13:28;;;;;;;13.10;7.47;;;;;;;3.01;91.37;98369.25;5021465;28;20045;-53
2021/11/28 01:15:54;;;;;;;10.70;6.68;;;;;;;3.02;91.63;98363.09;5023191;28;20045;-53
2021/11/28 01:18:21;;;;;;;12.07;6.88;;;;;;;3.06;91.46;98371.66;5023062;28;20059;-51
2021/11/28 01:20:47;;;;;;;8.98;6.05;;;;;;;3.10;91.00;98374.06;5012852;28;20045;-52
2021/11/28 01:23:14;;;;;;;11.18;6.35;;;;;;;3.15;89.76;98382.50;5017996;28;20052;-54
2021/11/28 01:25:40;;;;;;;9.95;5.75;;;;;;;3.13;89.98;98376.53;5021769;28;20084;-54
2021/11/28 01:28:07;;;;;;;9.40;6.07;;;;;;;3.16;89.43;98375.50;5022752;28;20050;-52
2021/11/28 01:30:33;;;;;;;10.32;6.35;;;;;;;3.19;90.88;98383.19;5014603;28;20045;-52
2021/11/28 01:33:00;;;;;;;8.02;6.07;;;;;;;3.20;89.62;98376.19;5022880;28;20132;-53
2021/11/28 01:35:26;;;;;;;9.25;5.78;;;;;;;3.22;89.69;98384.81;5019266;28;20086;-53
2021/11/28 01:37:53;;;;;;;9.10;6.78;;;;;;;3.22;89.47;98376.97;5023249;28;20095;-52
2021/11/28 01:40:22;;;;;;;10.85;6.30;;;;;;;3.21;89.85;98381.34;5016512;28;20061;-54
2021/11/28 01:42:53;;;;;;;9.93;6.10;;;;;;;3.20;89.71;98374.44;5019175;28;20041;-53
2021/11/28 01:45:23;;;;;;;10.95;6.70;;;;;;;3.23;89.06;98382.13;5023221;28;20049;-51
2021/11/28 01:47:52;;;;;;;10.38;6.15;;;;;;;3.21;89.03;98377.91;5020808;28;20049;-52
2021/11/28 01:50:19;;;;;;;10.57;5.93;;;;;;;3.21;87.97;98383.13;5015266;28;20038;-53
2021/11/28 01:52:46;;;;;;;8.30;5.45;;;;;;;3.23;87.91;98381.28;5019865;28;20037;-53
2021/11/28 01:55:19;;;;;;;10.35;6.20;;;;;;;3.24;87.02;98385.59;5020567;28;20066;-52
2021/11/28 01:57:46;;;;;;;11.20;6.10;;;;;;;3.25;87.12;98387.28;5018372;28;20045;-55
2021/11/28 02:00:17;;;;;;;10.23;6.30;;;;;;;3.31;86.85;98387.81;5017873;28;20055;-53
2021/11/28 02:02:43;;;;;;;;;;;;;;;3.25;87.19;98382.06;5015266;28;20041;-54
2021/11/28 02:05:11;;;;;;;10.00;6.20;;;;;;;3.17;87.46;98375.44;5021097;28;19929;-52
2021/11/28 02:07:37;;;;;;;10.65;6.25;;;;;;;3.23;87.23;98368.22;5018762;28;20052;-53
2021/11/28 02:10:05;;;;;;;11.95;6.80;;;;;;;3.17;87.24;98371.97;5014450;28;20038;-53
2021/11/28 02:12:32;;;;;;;10.98;6.30;;;;;;;3.18;87.93;98377.13;5016036;28;21143;-53
2021/11/28 02:15:00;;;;;;;10.40;6.65;;;;;;;3.18;88.04;98374.50;5020533;28;20049;-52
2021/11/28 02:17:27;;;;;;;10.75;7.18;;;;;;;3.16;88.54;98373.72;5021591;28;20474;-54
2021/11/28 02:19:54;;;;;;;10.68;6.90;;;;;;;3.11;88.19;98370.50;5015722;28;20050;-54
2021/11/28 02:22:22;;;;;;;11.52;6.80;;;;;;;3.11;88.42;98377.50;5010954;28;20041;-52
2021/11/28 02:24:49;;;;;;;13.25;7.32;;;;;;;3.12;89.90;98371.38;5018012;28;20145;-51
2021/11/28 02:27:15;;;;;;;10.43;7.10;;;;;;;3.12;88.61;98366.97;5019758;28;20057;-52
2021/11/28 02:29:43;;;;;;;10.38;6.70;;;;;;;3.13;88.98;98378.28;5020340;28;20652;-52
2021/11/28 02:32:11;;;;;;;9.93;7.15;;;;;;;3.13;89.33;98373.91;5011359;28;20043;-54
2021/11/28 02:34:38;;;;;;;11.60;7.35;;;;;;;3.12;89.61;98374.81;5020623;28;20124;-52
2021/11/28 02:37:05;;;;;;;13.75;7.03;;;;;;;3.18;88.65;98371.88;5020776;28;20514;-52
2021/11/28 02:39:36;;;;;;;13.45;7.50;;;;;;;3.17;89.22;98379.81;5017573;28;20037;-53
2021/11/28 02:42:04;;;;;;;9.85;7.40;;;;;;;3.15;89.55;98379.88;5010486;28;20067;-54
2021/11/28 02:44:33;;;;;;;14.13;7.85;;;;;;;3.21;88.46;98375.28;5021444;28;20056;-54
2021/11/28 02:47:01;;;;;;;12.82;7.95;;;;;;;3.17;88.82;98380.66;5020969;28;20046;-51
2021/11/28 02:49:29;;;;;;;9.77;7.00;;;;;;;3.17;88.74;98370.19;5019513;28;20128;-52
2021/11/28 02:51:55;;;;;;;10.45;7.45;;;;;;;3.13;89.21;98373.06;5016491;28;20092;-53
2021/11/28 02:54:23;;;;;;;13.82;7.43;;;;;;;3.02;89.58;98360.50;5018612;28;20045;-53
2021/11/28 02:56:49;;;;;;;14.07;7.88;;;;;;;3.10;89.85;98368.81;5019451;28;20494;-53
2021/11/28 02:59:16;;;;;;;11.30;7.55;;;;;;;3.09;89.84;98372.34;5021109;28;20057;-54
2021/11/28 03:01:43;;;;;;;8.95;6.90;;;;;;;3.11;89.51;98380.97;5008421;28;20048;-53
2021/11/28 03:04:10;;;;;;;10.95;7.03;;;;;;;3.16;89.57;98384.19;5012682;28;20050;-53
2021/11/28 03:06:37;;;;;;;13.65;7.15;;;;;;;3.20;88.97;98378.81;5021492;28;20048;-53
2021/11/28 03:09:04;;;;;;;9.70;6.78;;;;;;;3.16;88.49;98378.13;5021956;28;20141;-53
2021/11/28 03:11:31;;;;;;;9.75;6.60;;;;;;;3.16;88.86;98381.56;5007844;28;20037;-53
2021/11/28 03:13:57;;;;;;;9.07;6.53;;;;;;;3.17;88.53;98385.88;5022106;28;20045;-52
2021/11/28 03:16:25;;;;;;;9.25;6.40;;;;;;;3.17;88.68;98391.13;5017837;28;20500;-51
2021/11/28 03:18:52;;;;;;;12.05;7.15;;;;;;;3.04;89.05;98369.09;5016694;28;20077;-52
2021/11/28 03:21:22;;;;;;;11.18;6.53;;;;;;;3.17;88.55;98390.28;5009411;28;20052;-53
2021/11/28 03:23:50;;;;;;;12.00;6.18;;;;;;;3.14;88.11;98399.13;5017858;28;20529;-53
2021/11/28 03:26:18;;;;;;;9.82;6.30;;;;;;;3.10;88.50;98381.03;5018682;28;20045;-52
2021/11/28 03:28:50;;;;;;;10.82;6.40;;;;;;;3.11;88.17;98386.22;5019931;28;20403;-53
2021/11/28 03:31:44;;;;;;;12.07;6.13;;;;;;;3.12;88.44;98387.91;5030395;28;20041;-54
2021/11/28 03:34:21;;;;;;;11.30;6.93;;;;;;;3.18;88.06;98381.50;5019857;28;20053;-53
2021/11/28 03:36:53;;;;;;;10.48;6.45;;;;;;;3.18;87.48;98379.72;5025564;28;20057;-53
2021/11/28 03:39:23;;;;;;;10.95;6.95;;;;;;;3.19;88.02;98377.97;5019260;28;20041;-53
2021/11/28 03:41:56;;;;;;;9.27;6.20;;;;;;;3.16;88.05;98378.97;5011605;28;20097;-54
2021/11/28 03:44:23;;;;;;;9.88;6.00;;;;;;;3.15;87.95;98376.41;5020858;28;20042;-54
2021/11/28 03:46:50;;;;;;;12.88;6.65;;;;;;;3.18;88.11;98378.88;5019618;28;20059;-52
2021/11/28 03:49:16;;;;;;;8.55;6.35;;;;;;;3.13;88.74;98379.13;5018659;28;20046;-53
2021/11/28 03:51:43;;;;;;;9.20;5.75;;;;;;;3.16;88.77;98372.88;5009450;28;20456;-51
2021/11/28 03:54:10;;;;;;;12.60;6.38;;;;;;;2.97;88.61;98365.13;5021154;28;20064;-52
2021/11/28 03:56:37;;;;;;;11.05;6.28;;;;;;;3.01;88.95;98378.84;5019779;28;20137;-53
2021/11/28 03:59:04;;;;;;;13.38;6.18;;;;;;;2.94;89.56;98385.31;5020073;28;20046;-53
2021/11/28 04:01:30;;;;;;;12.82;6.65;;;;;;;2.87;90.38;98382.16;5014370;28;20046;-51
2021/11/28 04:03:57;;;;;;;10.50;6.55;;;;;;;2.81;90.25;98393.75;5018203;28;20048;-51
2021/11/28 04:06:23;;;;;;;11.02;6.18;;;;;;;2.80;92.00;98394.69;5018312;28;20057;-52
2021/11/28 04:08:50;;;;;;;10.52;6.70;;;;;;;2.80;92.03;98393.84;5019375;28;20056;-55
2021/11/28 04:11:17;;;;;;;11.82;6.68;;;;;;;2.77;92.53;98388.75;5010123;28;20050;-53
2021/11/28 04:13:44;;;;;;;11.55;6.97;;;;;;;2.74;93.18;98389.72;5017486;28;20048;-53
2021/11/28 04:16:11;;;;;;;11.05;7.63;;;;;;;2.72;93.32;98382.88;5023365;28;20053;-52
2021/11/28 04:18:39;;;;;;;10.57;6.72;;;;;;;2.73;93.33;98389.78;5018408;28;20078;-52
2021/11/28 04:21:06;;;;;;;13.13;7.18;;;;;;;2.76;93.53;98392.28;5018247;28;20045;-52
2021/11/28 04:23:33;;;;;;;11.95;6.88;;;;;;;2.66;93.18;98377.97;5020237;28;20041;-52
2021/11/28 04:25:59;;;;;;;14.88;7.63;;;;;;;2.75;93.54;98403.66;5018181;28;20049;-52
2021/11/28 04:28:27;;;;;;;13.05;7.35;;;;;;;2.75;94.02;98396.66;5021118;28;20518;-52
2021/11/28 04:30:53;;;;;;;12.75;7.35;;;;;;;2.76;93.94;98406.19;5018455;28;20046;-52
2021/11/28 04:33:21;;;;;;;13.85;7.40;;;;;;;2.80;94.19;98396.44;5019181;28;20530;-54
2021/11/28 04:35:48;;;;;;;11.85;7.18;;;;;;;2.77;93.45;98396.59;5019034;28;20053;-53
2021/11/28 04:38:15;;;;;;;13.05;7.43;;;;;;;2.74;94.22;98376.66;5022040;28;20136;-53
2021/11/28 04:40:41;;;;;;;10.57;7.40;;;;;;;2.84;93.92;98392.75;5020576;28;20045;-54
2021/11/28 04:43:08;;;;;;;16.15;7.90;;;;;;;2.86;93.32;98393.50;5020311;28;20045;-53
2021/11/28 04:45:34;;;;;;;13.60;7.47;;;;;;;2.90;92.46;98392.47;5020883;28;20049;-51
2021/11/28 04:48:01;;;;;;;13.05;7.47;;;;;;;2.85;92.97;98385.75;5021116;28;20034;-52
2021/11/28 04:50:27;;;;;;;10.13;7.50;;;;;;;2.82;93.64;98384.16;5022347;28;20109;-53
2021/11/28 04:52:54;;;;;;;13.93;7.72;;;;;;;2.74;93.36;98391.50;5013928;28;20512;-52
2021/11/28 04:55:21;;;;;;;11.98;7.53;;;;;;;2.69;93.95;98396.94;5024236;28;20422;-53
2021/11/28 04:57:47;;;;;;;11.73;7.93;;;;;;;2.61;93.91;98396.44;5021081;28;20506;-51
2021/11/28 05:00:23;;;;;;;13.18;8.25;;;;;;;2.52;95.00;98396.03;5021438;28;20049;-53
2021/11/28 05:02:51;;;;;;;14.48;8.40;;;;;;;2.45;95.04;98393.69;5008877;28;20041;-53
2021/11/28 05:05:19;;;;;;;12.00;8.55;;;;;;;2.51;95.58;98395.19;5021746;28;20053;-53
2021/11/28 05:07:45;;;;;;;11.80;8.00;;;;;;;2.50;95.52;98397.88;5018843;28;20083;-51
2021/11/28 05:10:12;;;;;;;13.23;7.57;;;;;;;2.51;96.15;98389.13;5021032;28;20056;-52
2021/11/28 05:12:39;;;;;;;13.68;8.65;;;;;;;2.50;95.75;98385.66;5019075;28;20045;-54
2021/11/28 05:15:06;;;;;;;13.32;8.57;;;;;;;2.49;96.32;98383.97;5017224;28;20049;-51
2021/11/28 05:17:33;;;;;;;17.15;8.75;;;;;;;2.50;96.40;98384.81;5022083;28;20042;-53
2021/11/28 05:19:59;;;;;;;11.77;8.32;;;;;;;2.52;96.70;98385.59;5022079;28;20095;-53
2021/11/28 05:22:26;;;;;;;15.02;8.52;;;;;;;2.48;96.23;98390.09;5012933;28;20053;-53
2021/11/28 05:24:52;;;;;;;14.07;8.73;;;;;;;2.46;96.79;98384.94;5023064;28;20450;-51
2021/11/28 05:27:20;;;;;;;13.65;8.90;;;;;;;2.49;96.62;98390.97;5015970;28;20079;-53
2021/11/28 05:29:47;;;;;;;16.52;8.80;;;;;;;2.47;97.53;98388.41;5023804;28;20057;-52
2021/11/28 05:32:14;;;;;;;16.58;9.00;;;;;;;2.46;97.38;98400.63;5013954;28;20049;-54
2021/11/28 05:34:41;;;;;;;16.83;9.02;;;;;;;2.49;97.23;98388.34;5021007;28;20498;-55
2021/11/28 05:37:08;;;;;;;11.30;8.32;;;;;;;2.52;96.77;98388.22;5014224;28;20041;-53
2021/11/28 05:39:34;;;;;;;11.90;8.60;;;;;;;2.44;96.78;98367.66;5025154;28;20469;-53
2021/11/28 05:42:01;;;;;;;12.07;8.88;;;;;;;2.53;96.53;98382.88;5013312;28;20045;-51
2021/11/28 05:44:28;;;;;;;13.60;8.73;;;;;;;2.55;97.50;98388.88;5015204;28;20060;-52
2021/11/28 05:46:54;;;;;;;16.73;9.60;;;;;;;2.56;96.88;98394.97;5018003;28;20046;-53
2021/11/28 05:49:21;;;;;;;13.98;9.32;;;;;;;2.57;96.97;98389.66;5022922;28;20049;-56
2021/11/28 05:51:48;;;;;;;15.75;8.73;;;;;;;2.56;96.90;98393.19;5010110;28;20590;-54
2021/11/28 05:54:14;;;;;;;15.82;9.77;;;;;;;2.63;95.35;98385.94;5008597;28;20046;-54
2021/11/28 05:56:41;;;;;;;13.48;8.95;;;;;;;2.62;95.46;98384.22;5022603;28;20422;-53
2021/11/28 05:59:07;;;;;;;14.18;9.18;;;;;;;2.64;95.51;98390.25;5023213;28;20061;-53
2021/11/28 06:01:34;;;;;;;11.75;7.93;;;;;;;2.59;95.59;98395.66;5017560;28;20082;-52
2021/11/28 06:04:01;;;;;;;15.38;9.80;;;;;;;2.56;95.83;98393.19;5017833;28;20529;-52
2021/11/28 06:06:28;;;;;;;13.82;9.50;;;;;;;2.55;96.04;98388.88;5017904;28;20054;-56
2021/11/28 06:08:55;;;;;;;18.58;10.30;;;;;;;2.56;96.93;98397.56;5024250;28;20411;-52
2021/11/28 06:11:21;;;;;;;14.88;9.40;;;;;;;2.64;96.20;98398.94;5013541;28;20046;-53
2021/11/28 06:13:51;;;;;;;14.23;9.95;;;;;;;2.62;95.74;98398.16;5017776;28;20046;-52
2021/11/28 06:16:18;;;;;;;13.00;8.68;;;;;;;2.64;95.16;98385.88;5019541;28;20080;-53
2021/11/28 06:18:44;;;;;;;14.93;9.50;;;;;;;2.62;94.98;98386.84;5022907;28;20051;-52
2021/11/28 06:21:11;;;;;;;15.80;9.85;;;;;;;2.61;95.35;98395.59;5015148;28;20060;-54
2021/11/28 06:23:37;;;;;;;12.70;9.55;;;;;;;2.61;95.66;98400.81;5015192;28;20053;-51
2021/11/28 06:26:05;;;;;;;12.98;9.32;;;;;;;2.64;95.35;98400.69;5022936;28;20037;-52
2021/11/28 06:28:33;;;;;;;17.90;9.52;;;;;;;2.69;95.01;98398.69;5021985;28;20115;-51
2021/11/28 06:31:00;;;;;;;15.73;9.73;;;;;;;2.67;94.77;98393.56;5020930;28;20230;-52
2021/11/28 06:33:26;;;;;;;13.93;9.18;;;;;;;2.67;95.01;98395.34;5014264;28;20142;-54
2021/11/28 06:35:53;;;;;;;14.95;10.07;;;;;;;2.69;95.04;98393.47;5023299;28;20849;-51
2021/11/28 06:38:20;;;;;;;15.25;9.27;;;;;;;2.68;95.30;98400.47;5018383;28;20095;-57
2021/11/28 06:40:47;;;;;;;16.90;10.73;;;;;;;2.54;94.65;98383.72;5027276;28;20059;-54
2021/11/28 06:43:15;;;;;;;16.33;9.90;;;;;;;2.62;94.39;98399.91;5015917;28;20522;-53
2021/11/28 06:45:42;;;;;;;15.55;10.02;;;;;;;2.64;95.04;98406.78;5016239;28;20055;-52
2021/11/28 06:48:09;;;;;;;16.52;9.88;;;;;;;2.66;95.62;98410.16;5020152;28;20099;-53
2021/11/28 06:50:36;;;;;;;15.18;10.02;;;;;;;2.65;95.20;98415.47;5021799;28;20504;-53
2021/11/28 06:53:03;;;;;;;14.95;10.20;;;;;;;2.69;95.12;98407.38;5012449;28;20045;-51
2021/11/28 06:55:31;;;;;;;14.63;9.60;;;;;;;2.78;93.88;98406.13;5019547;28;20053;-53
2021/11/28 06:57:58;;;;;;;14.20;10.07;;;;;;;2.77;93.41;98407.88;5018653;28;20041;-53
2021/11/28 07:00:24;;;;;;;15.13;9.82;;;;;;;2.75;93.86;98403.66;5022682;28;20406;-54
2021/11/28 07:02:51;;;;;;;16.98;9.85;;;;;;;2.73;93.54;98408.09;5010275;28;20046;-52
2021/11/28 07:05:18;;;;;;;16.70;10.02;;;;;;;2.72;93.85;98399.41;5020324;28;20132;-52
2021/11/28 07:07:44;;;;;;;16.98;10.60;;;;;;;2.65;94.33;98402.38;5022634;28;20072;-53
2021/11/28 07:10:11;;;;;;;15.88;10.13;;;;;;;2.67;94.85;98408.41;5016689;28;20525;-51
2021/11/28 07:12:37;;;;;;;13.82;9.32;;;;;;;2.72;93.96;98411.63;5012916;28;20042;-52
2021/11/28 07:15:05;;;;;;;18.13;10.25;;;;;;;2.63;94.10;98404.22;5018270;28;20076;-54
2021/11/28 07:17:31;;;;;;;14.15;9.77;;;;;;;2.66;93.89;98419.75;5017562;28;20041;-52
2021/11/28 07:19:58;;;;;;;14.10;9.88;;;;;;;2.64;94.63;98424.22;5016375;28;20086;-53
2021/11/28 07:22:24;;;;;;;16.10;10.13;;;;;;;2.68;94.33;98430.97;5008994;28;20050;-52
2021/11/28 07:24:51;;;;;;;15.48;9.90;;;;;;;2.78;94.05;98427.88;5016735;28;20451;-52
2021/11/28 07:27:17;;;;;;;15.43;10.38;;;;;;;2.81;93.34;98425.13;5020344;28;20058;-52
2021/11/28 07:29:44;;;;;;;16.02;10.50;;;;;;;2.83;92.82;98437.28;5018231;28;20033;-56
2021/11/28 07:32:10;;;;;;;17.50;10.43;;;;;;;2.79;92.65;98449.63;5013722;28;20079;-53
2021/11/28 07:34:37;;;;;;;13.55;10.38;;;;;;;2.79;93.92;98452.25;5015307;28;20606;-53
2021/11/28 07:37:04;;;;;;;17.83;10.18;;;;;;;2.83;94.29;98451.19;5009971;28;20049;-52
2021/11/28 07:39:30;;;;;;;15.82;10.70;;;;;;;2.88;94.23;98461.41;5019890;28;20049;-53
2021/11/28 07:41:57;;;;;;;14.95;10.57;;;;;;;2.89;93.66;98461.34;5013913;28;20069;-54
2021/11/28 07:44:24;;;;;;;13.40;10.40;;;;;;;2.97;93.50;98458.38;5009610;28;20075;-52
2021/11/28 07:46:50;;;;;;;16.92;10.60;;;;;;;3.06;92.95;98460.56;5017242;28;20702;-53
2021/11/28 07:49:17;;;;;;;16.65;10.23;;;;;;;3.07;92.26;98460.47;5019098;28;20589;-54
2021/11/28 07:51:43;;;;;;;13.35;9.88;;;;;;;3.11;91.82;98463.81;5020333;28;20052;-51
2021/11/28 07:54:10;;;;;;;17.02;9.73;;;;;;;3.08;91.85;98463.94;5019553;28;20053;-60
2021/11/28 07:56:38;;;;;;;16.38;9.85;;;;;;;3.07;93.07;98457.88;5021322;28;20117;-53
2021/11/28 07:59:05;;;;;;;21.20;11.95;;;;;;;3.06;92.13;98460.56;5025188;28;20041;-53
2021/11/28 08:01:31;;;;;;;17.77;11.88;;;;;;;3.02;93.12;98467.69;5022772;28;20104;-52
2021/11/28 08:03:58;;;;;;;18.02;11.70;;;;;;;2.99;93.02;98467.81;5014625;28;20069;-53
2021/11/28 08:06:26;;;;;;;16.20;10.93;;;;;;;3.08;92.60;98469.19;5021238;28;20064;-51
2021/11/28 08:08:52;;;;;;;16.00;10.85;;;;;;;3.02;91.95;98457.22;5022802;28;20064;-52
2021/11/28 08:11:19;;;;;;;14.63;10.32;;;;;;;3.07;92.40;98455.25;5011089;28;20052;-52
2021/11/28 08:13:48;;;;;;;18.73;10.88;;;;;;;3.16;91.96;98477.50;5010469;28;20049;-51
2021/11/28 08:16:15;;;;;;;19.30;10.98;;;;;;;3.17;91.92;98477.41;5021361;28;20474;-53
2021/11/28 08:18:41;;;;;;;16.70;10.55;;;;;;;3.32;90.48;98478.47;5022077;28;20057;-52
2021/11/28 08:21:08;;;;;;;15.35;10.18;;;;;;;3.29;90.91;98483.84;5020919;28;20056;-51
2021/11/28 08:23:35;;;;;;;13.30;9.48;;;;;;;3.26;91.24;98488.38;5010488;28;20056;-52
2021/11/28 08:26:01;;;;;;;15.25;11.05;;;;;;;3.24;91.19;98480.59;5022018;28;20056;-52
2021/11/28 08:28:29;;;;;;;15.40;10.30;;;;;;;3.25;91.44;98492.75;5021560;28;20122;-53
2021/11/28 08:30:55;;;;;;;17.67;10.00;;;;;;;3.23;91.22;98484.13;5024243;28;20053;-52
2021/11/28 08:33:22;;;;;;;16.20;10.50;;;;;;;3.27;91.92;98484.84;5017616;28;20056;-51
2021/11/28 08:35:48;;;;;;;17.13;10.57;;;;;;;3.29;91.72;98489.09;5024956;28;20143;-53
2021/11/28 08:38:15;;;;;;;13.90;10.05;;;;;;;3.26;90.50;98473.53;5022511;28;20042;-55
2021/11/28 08:40:42;;;;;;;17.30;10.57;;;;;;;3.34;90.44;98492.31;5018571;28;20072;-53
2021/11/28 08:43:08;;;;;;;14.13;9.73;;;;;;;3.40;90.00;98493.81;5014452;28;20050;-51
2021/11/28 08:45:36;;;;;;;15.35;10.65;;;;;;;3.40;89.27;98497.25;5018103;28;20046;-52
2021/11/28 08:48:02;;;;;;;20.15;10.75;;;;;;;3.38;89.68;98501.72;5018574;28;20076;-52
2021/11/28 08:50:29;;;;;;;14.75;10.48;;;;;;;3.41;89.69;98508.56;5013764;28;20053;-52
2021/11/28 08:52:56;;;;;;;13.98;10.43;;;;;;;3.42;90.43;98505.03;5016506;28;20041;-53
2021/11/28 08:55:22;;;;;;;15.20;10.25;;;;;;;3.48;89.60;98510.81;5015094;28;20041;-51
2021/11/28 08:57:49;;;;;;;15.45;9.50;;;;;;;3.44;89.76;98496.22;5021998;28;20085;-51
2021/11/28 09:00:16;;;;;;;13.80;9.60;;;;;;;3.50;89.81;98502.88;5014665;28;20050;-53
2021/11/28 09:02:49;;;;;;;15.88;9.95;;;;;;;3.49;89.87;98503.81;5013104;28;20065;-52
2021/11/28 09:05:19;;;;;;;15.50;10.67;;;;;;;3.43;89.72;98486.66;5011287;28;20041;-51
2021/11/28 09:07:47;;;;;;;13.18;10.23;;;;;;;3.58;89.51;98507.78;5018890;28;20526;-53
2021/11/28 09:10:16;;;;;;;13.43;10.20;;;;;;;3.64;89.83;98503.06;5019063;28;20053;-54
2021/11/28 09:12:44;;;;;;;12.63;10.02;;;;;;;3.73;88.44;98502.63;5019227;28;20041;-53
2021/11/28 09:15:12;;;;;;;15.32;10.40;;;;;;;3.77;88.68;98503.34;5016434;28;20053;-53
2021/11/28 09:17:44;;;;;;;13.50;9.90;;;;;;;3.80;88.76;98506.63;5013098;28;20054;-53
2021/11/28 09:20:11;;;;;;;15.65;9.57;;;;;;;3.84;87.30;98504.69;5014748;28;20046;-54
2021/11/28 09:25:10;;;;;;;15.43;10.57;;;;;;;3.78;88.10;98516.31;5008381;28;20060;-53
2021/11/28 09:27:50;;;;;;;16.13;10.52;;;;;;;3.82;87.76;98517.88;5012712;28;20046;-52
2021/11/28 09:30:18;;;;;;;13.43;10.30;;;;;;;3.84;87.61;98518.66;5008918;28;20045;-54
2021/11/28 09:32:46;;;;;;;13.20;9.48;;;;;;;3.81;87.19;98515.31;5003262;28;20155;-53
2021/11/28 09:35:14;;;;;;;13.93;10.25;;;;;;;3.78;86.75;98518.09;5006654;28;20042;-53
2021/11/28 09:37:40;;;;;;;15.73;10.80;;;;;;;3.71;87.07;98517.56;5004381;28;20046;-52
2021/11/28 09:40:08;;;;;;;15.50;10.63;;;;;;;3.59;88.01;98497.22;5002942;28;20056;-53
2021/11/28 09:42:41;;;;;;;15.35;10.45;;;;;;;3.69;87.67;98519.41;5013699;28;20050;-52
2021/11/28 09:45:08;;;;;;;16.13;11.00;;;;;;;3.73;87.72;98518.34;5004898;28;20064;-52
2021/11/28 09:47:38;;;;;;;15.45;10.68;;;;;;;3.76;88.06;98514.72;5006331;28;20054;-52
2021/11/28 09:50:07;;;;;;;15.82;11.07;;;;;;;3.74;87.96;98519.19;5007842;28;20063;-53
2021/11/28 09:52:34;;;;;;;15.63;11.15;;;;;;;3.74;88.67;98516.56;5006389;28;20048;-51
2021/11/28 09:55:07;;;;;;;16.00;11.65;;;;;;;3.75;88.08;98523.50;4997964;28;20585;-53
2021/11/28 09:57:34;;;;;;;16.83;12.20;;;;;;;3.79;88.34;98506.69;5006789;28;20057;-53
2021/11/28 10:00:07;;;;;;;15.90;11.18;;;;;;;3.81;88.70;98513.56;5006404;28;20091;-51
2021/11/28 10:02:35;;;;;;;17.58;11.63;;;;;;;3.72;88.58;98487.84;5008483;28;20060;-53
2021/11/28 10:05:09;;;;;;;16.17;11.00;;;;;;;3.85;88.15;98499.41;5000877;28;21230;-52
2021/11/28 10:07:42;;;;;;;16.23;11.40;;;;;;;3.88;88.72;98498.41;5006403;28;20123;-52
2021/11/28 10:10:10;;;;;;;17.50;12.23;;;;;;;3.97;88.80;98499.69;5006915;28;20049;-52
2021/11/28 10:12:42;;;;;;;16.55;11.38;;;;;;;4.02;87.23;98508.19;5006507;28;20038;-53
2021/11/28 10:15:13;;;;;;;17.10;11.50;;;;;;;4.02;87.34;98505.56;5005230;28;20089;-52
2021/11/28 10:17:41;;;;;;;15.63;11.18;;;;;;;4.00;88.01;98502.16;5005339;28;20114;-52
2021/11/28 10:20:11;;;;;;;15.35;11.68;;;;;;;4.00;88.23;98502.16;5006660;28;20046;-52
2021/11/28 10:22:39;;;;;;;16.00;11.52;;;;;;;4.00;88.71;98496.94;5003563;28;20103;-52
2021/11/28 10:25:17;;;;;;;14.77;11.48;;;;;;;3.96;87.18;98491.00;5003117;28;20517;-53
2021/11/28 10:27:47;;;;;;;17.10;12.38;;;;;;;4.03;87.03;98494.16;5008640;28;20054;-52
2021/11/28 10:30:18;;;;;;;19.07;12.43;;;;;;;4.01;86.82;98494.22;5006589;28;20075;-51
2021/11/28 10:32:49;;;;;;;18.50;12.55;;;;;;;3.94;87.14;98492.00;4999728;28;20477;-53
2021/11/28 10:35:17;;;;;;;18.35;12.55;;;;;;;3.96;87.89;98490.13;5001169;28;20042;-52
2021/11/28 10:37:47;;;;;;;19.67;12.63;;;;;;;3.99;87.66;98495.22;5005753;28;20045;-53
2021/11/28 10:40:23;;;;;;;18.88;12.70;;;;;;;4.03;87.98;98488.91;5022441;28;20085;-52
2021/11/28 10:43:06;;;;;;;22.58;13.82;;;;;;;4.08;88.41;98492.16;5010160;28;22281;-51
2021/11/28 10:45:38;;;;;;;20.40;13.52;;;;;;;4.07;87.60;98462.50;5004382;28;20054;-51
2021/11/28 10:48:07;;;;;;;23.02;13.63;;;;;;;4.16;86.85;98476.88;5011731;28;20041;-53
2021/11/28 10:50:38;;;;;;;18.25;12.90;;;;;;;4.18;86.86;98475.88;5015641;28;20487;-53
2021/11/28 10:53:04;;;;;;;;;;;;;;;4.25;86.85;98476.41;5014642;28;20479;-52
2021/11/28 10:55:40;;;;;;;17.05;11.55;;;;;;;4.39;85.51;98480.94;5005178;28;20233;-54
2021/11/28 10:58:14;;;;;;;18.20;12.43;;;;;;;4.39;86.14;98475.72;5004305;28;20061;-54
2021/11/28 11:01:05;;;;;;;16.80;11.55;;;;;;;4.45;86.12;98480.59;5009846;28;20491;-54
2021/11/28 11:03:33;;;;;;;17.92;12.60;;;;;;;4.47;85.39;98484.84;5002929;28;20059;-55
2021/11/28 11:06:20;;;;;;;18.30;12.70;;;;;;;4.50;85.39;98476.81;5008533;28;20041;-53
2021/11/28 11:08:53;;;;;;;16.98;12.13;;;;;;;4.56;85.24;98476.47;5009264;28;20803;-50
2021/11/28 11:11:20;;;;;;;17.73;11.88;;;;;;;4.65;84.20;98469.06;5004017;28;20756;-53
2021/11/28 11:14:14;;;;;;;16.33;12.10;;;;;;;4.69;84.56;98471.47;5001713;28;20055;-52
2021/11/28 11:16:43;;;;;;;17.58;12.00;;;;;;;4.72;84.44;98470.44;4994843;28;20764;-53
2021/11/28 11:19:31;;;;;;;15.10;11.50;;;;;;;4.70;83.99;98477.56;5014595;28;20053;-53
2021/11/28 11:22:14;;;;;;;18.88;12.10;;;;;;;4.68;84.12;98476.78;5011993;28;20506;-53
2021/11/28 11:24:49;;;;;;;16.52;12.63;;;;;;;4.68;84.40;98479.41;4999755;28;20061;-53
2021/11/28 11:27:19;;;;;;;17.42;11.85;;;;;;;4.69;83.88;98478.47;5010526;28;20041;-53
2021/11/28 11:29:48;;;;;;;17.33;12.70;;;;;;;4.67;83.99;98480.31;5012561;28;20045;-54
2021/11/28 11:32:17;;;;;;;14.57;11.45;;;;;;;4.64;84.35;98473.47;5013879;28;20145;-53
2021/11/28 11:35:15;;;;;;;14.82;10.98;;;;;;;4.61;84.67;98470.16;5010961;28;20543;-52
2021/11/28 11:37:42;;;;;;;17.67;11.35;;;;;;;4.52;85.34;98479.38;5005684;28;20076;-53
2021/11/28 11:40:10;;;;;;;15.02;10.52;;;;;;;4.51;84.97;98477.69;5018345;28;20486;-54
2021/11/28 11:42:38;;;;;;;13.70;10.73;;;;;;;4.51;85.36;98478.53;5017367;28;20415;-53